ブラジリア の空港の天気 - METARとTAF

ブラジリア国際空港 ( SBBR / BSB ) - ブラジル ブラジリア
飛行場実況気象(Metar)
観測時間09/30 02:00 BRT (09/30 05:00 UTC)
風向・風速西 1m/s
視程10km以上
天気現象
なし
気温19℃
湿度52%
気圧1018hPa
METARSBBR 300500Z 26001KT CAVOK 19/09 Q1018
過去の天気等 Google飛行場航空写真 Wunderground天気予報

過去48時間のMETAR

飛行場予報(TAF)
発表時間: 9/29 23:10 BRT (9/30 02:10 UTC)
予報対象時間: 30日3時 BRT ~ 1日3時 BRT
風向・風速北東 2m/s
視程10km以上
なし
30日3時 BRT ~ 30日5時 BRT に徐々に
風向・風速静穏
30日6時 BRT ~ 30日8時 BRT に徐々に
風向・風速東北東 4m/s
30日11時 BRT ~ 30日13時 BRT に徐々に
風向・風速東 5m/s
少しの雲 雲底高度 1220m
30日15時 BRT ~ 30日17時 BRT に徐々に
視程10km以上
なし
30日20時 BRT ~ 30日22時 BRT に徐々に
風向・風速東北東 3m/s
TAF SBBR 300210Z 3006/0106 04003KT CAVOK TN19/3009Z TX36/3018Z
BECMG 3006/3008 00000KT
BECMG 3009/3011 07008KT
BECMG 3014/3016 10010KT FEW040
BECMG 3018/3020 CAVOK
BECMG 3023/0101 07005KT RMK PGL